sensor_id;sensor_type;location;lat;lon;timestamp;temperature;humidity
63260;DHT22;49390;51.380;0.098;2023-05-21T00:00:12;12.50;73.50
63260;DHT22;49390;51.380;0.098;2023-05-21T00:03:01;12.50;74.10
63260;DHT22;49390;51.380;0.098;2023-05-21T00:05:28;12.40;74.80
63260;DHT22;49390;51.380;0.098;2023-05-21T00:07:59;12.40;75.40
63260;DHT22;49390;51.380;0.098;2023-05-21T00:10:26;12.30;76.10
63260;DHT22;49390;51.380;0.098;2023-05-21T00:12:54;12.30;76.90
63260;DHT22;49390;51.380;0.098;2023-05-21T00:15:24;12.30;77.70
63260;DHT22;49390;51.380;0.098;2023-05-21T00:17:53;12.20;78.30
63260;DHT22;49390;51.380;0.098;2023-05-21T00:20:20;12.20;79.20
63260;DHT22;49390;51.380;0.098;2023-05-21T00:22:48;12.20;79.70
63260;DHT22;49390;51.380;0.098;2023-05-21T00:25:16;12.10;80.50
63260;DHT22;49390;51.380;0.098;2023-05-21T00:27:47;12.10;81.50
63260;DHT22;49390;51.380;0.098;2023-05-21T00:30:16;12.00;82.20
63260;DHT22;49390;51.380;0.098;2023-05-21T00:32:44;12.00;82.90
63260;DHT22;49390;51.380;0.098;2023-05-21T00:35:14;12.00;83.90
63260;DHT22;49390;51.380;0.098;2023-05-21T00:37:42;11.90;84.80
63260;DHT22;49390;51.380;0.098;2023-05-21T00:40:10;12.00;85.80
63260;DHT22;49390;51.380;0.098;2023-05-21T00:42:39;11.90;87.50
63260;DHT22;49390;51.380;0.098;2023-05-21T00:45:10;11.90;89.10
63260;DHT22;49390;51.380;0.098;2023-05-21T00:47:39;11.90;90.70
63260;DHT22;49390;51.380;0.098;2023-05-21T00:50:09;11.80;91.40
63260;DHT22;49390;51.380;0.098;2023-05-21T00:52:37;11.80;91.90
63260;DHT22;49390;51.380;0.098;2023-05-21T00:55:08;11.80;92.40
63260;DHT22;49390;51.380;0.098;2023-05-21T00:57:38;11.80;93.10
63260;DHT22;49390;51.380;0.098;2023-05-21T01:00:09;11.80;93.70
63260;DHT22;49390;51.380;0.098;2023-05-21T01:02:38;11.70;94.30
63260;DHT22;49390;51.380;0.098;2023-05-21T01:05:09;11.80;94.90
63260;DHT22;49390;51.380;0.098;2023-05-21T01:07:39;11.70;96.00
63260;DHT22;49390;51.380;0.098;2023-05-21T01:10:09;11.70;96.60
63260;DHT22;49390;51.380;0.098;2023-05-21T01:12:38;11.70;97.30
63260;DHT22;49390;51.380;0.098;2023-05-21T01:15:08;11.70;98.30
63260;DHT22;49390;51.380;0.098;2023-05-21T01:17:37;11.60;99.10
63260;DHT22;49390;51.380;0.098;2023-05-21T01:20:06;11.60;99.90
63260;DHT22;49390;51.380;0.098;2023-05-21T01:22:46;11.60;99.90
63260;DHT22;49390;51.380;0.098;2023-05-21T01:25:15;11.50;99.90
63260;DHT22;49390;51.380;0.098;2023-05-21T01:27:43;11.50;99.90
63260;DHT22;49390;51.380;0.098;2023-05-21T01:30:12;11.50;99.90
63260;DHT22;49390;51.380;0.098;2023-05-21T01:32:59;11.50;99.90
63260;DHT22;49390;51.380;0.098;2023-05-21T01:35:38;11.50;99.90
63260;DHT22;49390;51.380;0.098;2023-05-21T01:38:13;11.40;99.90
63260;DHT22;49390;51.380;0.098;2023-05-21T01:41:01;11.40;99.90
63260;DHT22;49390;51.380;0.098;2023-05-21T01:43:35;11.40;99.90
63260;DHT22;49390;51.380;0.098;2023-05-21T01:46:04;11.40;99.90
63260;DHT22;49390;51.380;0.098;2023-05-21T01:48:34;11.40;99.90
63260;DHT22;49390;51.380;0.098;2023-05-21T01:51:03;11.40;99.90
63260;DHT22;49390;51.380;0.098;2023-05-21T01:53:32;11.40;99.90
63260;DHT22;49390;51.380;0.098;2023-05-21T01:56:00;11.30;99.90
63260;DHT22;49390;51.380;0.098;2023-05-21T01:58:29;11.30;99.90
63260;DHT22;49390;51.380;0.098;2023-05-21T02:00:57;11.30;99.90
63260;DHT22;49390;51.380;0.098;2023-05-21T02:03:26;11.30;99.90
63260;DHT22;49390;51.380;0.098;2023-05-21T02:05:55;11.30;99.90
63260;DHT22;49390;51.380;0.098;2023-05-21T02:08:23;11.30;99.90
63260;DHT22;49390;51.380;0.098;2023-05-21T02:10:52;11.20;99.90
63260;DHT22;49390;51.380;0.098;2023-05-21T02:13:20;11.20;99.90
63260;DHT22;49390;51.380;0.098;2023-05-21T02:15:52;11.20;99.90
63260;DHT22;49390;51.380;0.098;2023-05-21T02:18:22;11.20;99.90
63260;DHT22;49390;51.380;0.098;2023-05-21T02:20:51;11.10;99.90
63260;DHT22;49390;51.380;0.098;2023-05-21T02:23:19;11.10;99.90
63260;DHT22;49390;51.380;0.098;2023-05-21T02:25:47;11.10;99.90
63260;DHT22;49390;51.380;0.098;2023-05-21T02:28:15;11.10;99.90
63260;DHT22;49390;51.380;0.098;2023-05-21T02:30:43;11.00;99.90
63260;DHT22;49390;51.380;0.098;2023-05-21T02:33:14;11.00;99.90
63260;DHT22;49390;51.380;0.098;2023-05-21T02:35:45;11.00;99.90
63260;DHT22;49390;51.380;0.098;2023-05-21T02:38:16;11.00;99.90
63260;DHT22;49390;51.380;0.098;2023-05-21T02:40:46;10.90;99.90
63260;DHT22;49390;51.380;0.098;2023-05-21T02:43:14;10.90;99.90
63260;DHT22;49390;51.380;0.098;2023-05-21T02:45:43;10.90;99.90
63260;DHT22;49390;51.380;0.098;2023-05-21T02:48:11;10.90;99.90
63260;DHT22;49390;51.380;0.098;2023-05-21T02:50:41;10.80;99.90
63260;DHT22;49390;51.380;0.098;2023-05-21T02:53:09;10.80;99.90
63260;DHT22;49390;51.380;0.098;2023-05-21T02:55:37;10.90;99.90
63260;DHT22;49390;51.380;0.098;2023-05-21T02:58:06;10.80;99.90
63260;DHT22;49390;51.380;0.098;2023-05-21T03:00:34;10.80;99.90
63260;DHT22;49390;51.380;0.098;2023-05-21T03:03:02;10.80;99.90
63260;DHT22;49390;51.380;0.098;2023-05-21T03:05:30;10.80;99.90
63260;DHT22;49390;51.380;0.098;2023-05-21T03:07:58;10.70;99.90
63260;DHT22;49390;51.380;0.098;2023-05-21T03:10:26;10.70;99.90
63260;DHT22;49390;51.380;0.098;2023-05-21T03:12:54;10.70;99.90
63260;DHT22;49390;51.380;0.098;2023-05-21T03:15:22;10.60;99.90
63260;DHT22;49390;51.380;0.098;2023-05-21T03:17:50;10.60;99.90
63260;DHT22;49390;51.380;0.098;2023-05-21T03:20:21;10.60;99.90
63260;DHT22;49390;51.380;0.098;2023-05-21T03:22:48;10.60;99.90
63260;DHT22;49390;51.380;0.098;2023-05-21T03:25:16;10.50;99.90
63260;DHT22;49390;51.380;0.098;2023-05-21T03:27:44;10.50;99.90
63260;DHT22;49390;51.380;0.098;2023-05-21T03:30:29;10.50;99.90
63260;DHT22;49390;51.380;0.098;2023-05-21T03:33:17;10.50;99.90
63260;DHT22;49390;51.380;0.098;2023-05-21T03:35:46;10.50;99.90
63260;DHT22;49390;51.380;0.098;2023-05-21T03:38:14;10.40;99.90
63260;DHT22;49390;51.380;0.098;2023-05-21T03:40:43;10.40;99.90
63260;DHT22;49390;51.380;0.098;2023-05-21T03:43:11;10.40;99.90
63260;DHT22;49390;51.380;0.098;2023-05-21T03:45:41;10.40;99.90
63260;DHT22;49390;51.380;0.098;2023-05-21T03:48:31;10.40;99.90
63260;DHT22;49390;51.380;0.098;2023-05-21T03:51:00;10.40;99.90
63260;DHT22;49390;51.380;0.098;2023-05-21T03:53:29;10.30;99.90
63260;DHT22;49390;51.380;0.098;2023-05-21T03:55:57;10.30;99.90
63260;DHT22;49390;51.380;0.098;2023-05-21T03:58:24;10.30;99.90
63260;DHT22;49390;51.380;0.098;2023-05-21T04:00:54;10.30;99.90
63260;DHT22;49390;51.380;0.098;2023-05-21T04:03:23;10.30;99.90
63260;DHT22;49390;51.380;0.098;2023-05-21T04:05:51;10.30;99.90
63260;DHT22;49390;51.380;0.098;2023-05-21T04:08:19;10.20;99.90
63260;DHT22;49390;51.380;0.098;2023-05-21T04:10:47;10.20;99.90
63260;DHT22;49390;51.380;0.098;2023-05-21T04:13:15;10.20;99.90
63260;DHT22;49390;51.380;0.098;2023-05-21T04:15:43;10.20;99.90
63260;DHT22;49390;51.380;0.098;2023-05-21T04:18:13;10.20;99.90
63260;DHT22;49390;51.380;0.098;2023-05-21T04:20:44;10.20;99.90
63260;DHT22;49390;51.380;0.098;2023-05-21T04:23:12;10.10;99.90
63260;DHT22;49390;51.380;0.098;2023-05-21T04:25:40;10.20;99.90
63260;DHT22;49390;51.380;0.098;2023-05-21T04:28:10;10.10;99.90
63260;DHT22;49390;51.380;0.098;2023-05-21T04:30:38;10.10;99.90
63260;DHT22;49390;51.380;0.098;2023-05-21T04:33:06;10.20;99.90
63260;DHT22;49390;51.380;0.098;2023-05-21T04:35:36;10.20;99.90
63260;DHT22;49390;51.380;0.098;2023-05-21T04:38:11;10.20;99.90
63260;DHT22;49390;51.380;0.098;2023-05-21T04:40:39;10.20;99.90
63260;DHT22;49390;51.380;0.098;2023-05-21T04:43:07;10.20;99.90
63260;DHT22;49390;51.380;0.098;2023-05-21T04:45:35;10.20;99.90
63260;DHT22;49390;51.380;0.098;2023-05-21T04:48:04;10.20;99.90
63260;DHT22;49390;51.380;0.098;2023-05-21T04:50:32;10.20;99.90
63260;DHT22;49390;51.380;0.098;2023-05-21T04:53:01;10.20;99.90
63260;DHT22;49390;51.380;0.098;2023-05-21T04:55:30;10.30;99.90
63260;DHT22;49390;51.380;0.098;2023-05-21T04:57:58;10.20;99.90
63260;DHT22;49390;51.380;0.098;2023-05-21T05:00:26;10.20;99.90
63260;DHT22;49390;51.380;0.098;2023-05-21T05:02:54;10.20;99.90
63260;DHT22;49390;51.380;0.098;2023-05-21T05:05:22;10.30;99.90
63260;DHT22;49390;51.380;0.098;2023-05-21T05:07:50;10.30;99.90
63260;DHT22;49390;51.380;0.098;2023-05-21T05:10:18;10.30;99.90
63260;DHT22;49390;51.380;0.098;2023-05-21T05:12:47;10.30;99.90
63260;DHT22;49390;51.380;0.098;2023-05-21T05:15:19;10.40;99.90
63260;DHT22;49390;51.380;0.098;2023-05-21T05:17:47;10.40;99.90
63260;DHT22;49390;51.380;0.098;2023-05-21T05:20:17;10.40;99.90
63260;DHT22;49390;51.380;0.098;2023-05-21T05:22:45;10.50;99.90
63260;DHT22;49390;51.380;0.098;2023-05-21T05:25:13;10.50;99.90
63260;DHT22;49390;51.380;0.098;2023-05-21T05:27:42;10.50;99.90
63260;DHT22;49390;51.380;0.098;2023-05-21T05:30:11;10.50;99.90
63260;DHT22;49390;51.380;0.098;2023-05-21T05:32:41;10.60;99.90
63260;DHT22;49390;51.380;0.098;2023-05-21T05:35:09;10.70;99.90
63260;DHT22;49390;51.380;0.098;2023-05-21T05:37:37;10.70;99.90
63260;DHT22;49390;51.380;0.098;2023-05-21T05:40:06;10.70;99.90
63260;DHT22;49390;51.380;0.098;2023-05-21T05:42:34;10.80;99.90
63260;DHT22;49390;51.380;0.098;2023-05-21T05:45:10;10.80;99.90
63260;DHT22;49390;51.380;0.098;2023-05-21T05:47:39;10.90;99.90
63260;DHT22;49390;51.380;0.098;2023-05-21T05:50:08;11.00;99.90
63260;DHT22;49390;51.380;0.098;2023-05-21T05:52:36;11.00;99.90
63260;DHT22;49390;51.380;0.098;2023-05-21T05:55:05;11.10;99.90
63260;DHT22;49390;51.380;0.098;2023-05-21T05:57:35;11.20;99.90
63260;DHT22;49390;51.380;0.098;2023-05-21T06:00:11;11.30;99.90
63260;DHT22;49390;51.380;0.098;2023-05-21T06:02:39;11.30;99.90
63260;DHT22;49390;51.380;0.098;2023-05-21T06:05:10;11.40;99.90
63260;DHT22;49390;51.380;0.098;2023-05-21T06:07:39;11.40;99.90
63260;DHT22;49390;51.380;0.098;2023-05-21T06:10:08;11.50;99.90
63260;DHT22;49390;51.380;0.098;2023-05-21T06:12:35;11.50;99.90
63260;DHT22;49390;51.380;0.098;2023-05-21T06:15:06;11.60;99.90
63260;DHT22;49390;51.380;0.098;2023-05-21T06:17:35;11.70;99.90
63260;DHT22;49390;51.380;0.098;2023-05-21T06:20:04;11.70;99.90
63260;DHT22;49390;51.380;0.098;2023-05-21T06:22:32;11.80;99.90
63260;DHT22;49390;51.380;0.098;2023-05-21T06:25:00;11.90;99.90
63260;DHT22;49390;51.380;0.098;2023-05-21T06:27:28;11.90;99.90
63260;DHT22;49390;51.380;0.098;2023-05-21T06:29:58;12.00;99.90
63260;DHT22;49390;51.380;0.098;2023-05-21T06:32:26;12.00;99.90
63260;DHT22;49390;51.380;0.098;2023-05-21T06:34:55;12.10;99.90
63260;DHT22;49390;51.380;0.098;2023-05-21T06:37:22;12.10;99.90
63260;DHT22;49390;51.380;0.098;2023-05-21T06:39:53;12.20;99.90
63260;DHT22;49390;51.380;0.098;2023-05-21T06:42:22;12.30;99.90
63260;DHT22;49390;51.380;0.098;2023-05-21T06:45:12;12.30;99.90
63260;DHT22;49390;51.380;0.098;2023-05-21T06:47:46;12.50;99.90
63260;DHT22;49390;51.380;0.098;2023-05-21T06:50:14;12.70;99.90
63260;DHT22;49390;51.380;0.098;2023-05-21T06:52:42;13.10;99.90
63260;DHT22;49390;51.380;0.098;2023-05-21T06:55:10;13.60;99.90
63260;DHT22;49390;51.380;0.098;2023-05-21T06:57:59;14.20;99.90
63260;DHT22;49390;51.380;0.098;2023-05-21T07:00:27;14.90;99.90
63260;DHT22;49390;51.380;0.098;2023-05-21T07:02:56;15.40;99.90
63260;DHT22;49390;51.380;0.098;2023-05-21T07:05:25;15.70;97.90
63260;DHT22;49390;51.380;0.098;2023-05-21T07:07:54;16.00;93.80
63260;DHT22;49390;51.380;0.098;2023-05-21T07:10:22;16.20;93.50
63260;DHT22;49390;51.380;0.098;2023-05-21T07:12:50;16.60;91.90
63260;DHT22;49390;51.380;0.098;2023-05-21T07:15:19;17.10;85.40
63260;DHT22;49390;51.380;0.098;2023-05-21T07:17:47;17.40;83.90
63260;DHT22;49390;51.380;0.098;2023-05-21T07:20:15;17.80;81.30
63260;DHT22;49390;51.380;0.098;2023-05-21T07:22:47;18.20;77.70
63260;DHT22;49390;51.380;0.098;2023-05-21T07:25:19;18.50;76.00
63260;DHT22;49390;51.380;0.098;2023-05-21T07:27:47;18.90;73.80
63260;DHT22;49390;51.380;0.098;2023-05-21T07:30:16;19.20;70.80
63260;DHT22;49390;51.380;0.098;2023-05-21T07:32:44;19.40;69.10
63260;DHT22;49390;51.380;0.098;2023-05-21T07:35:13;19.50;67.70
63260;DHT22;49390;51.380;0.098;2023-05-21T07:37:41;19.70;67.50
63260;DHT22;49390;51.380;0.098;2023-05-21T07:40:10;19.90;65.80
63260;DHT22;49390;51.380;0.098;2023-05-21T07:42:38;20.10;64.10
63260;DHT22;49390;51.380;0.098;2023-05-21T07:45:07;20.20;62.80
63260;DHT22;49390;51.380;0.098;2023-05-21T07:47:40;20.30;61.30
63260;DHT22;49390;51.380;0.098;2023-05-21T07:50:08;20.40;61.70
63260;DHT22;49390;51.380;0.098;2023-05-21T07:52:37;20.60;60.80
63260;DHT22;49390;51.380;0.098;2023-05-21T07:55:06;20.70;60.50
63260;DHT22;49390;51.380;0.098;2023-05-21T07:57:36;20.90;60.10
63260;DHT22;49390;51.380;0.098;2023-05-21T08:00:11;21.00;58.20
63260;DHT22;49390;51.380;0.098;2023-05-21T08:02:49;20.90;57.70
63260;DHT22;49390;51.380;0.098;2023-05-21T08:05:19;20.70;57.80
63260;DHT22;49390;51.380;0.098;2023-05-21T08:07:48;20.70;57.80
63260;DHT22;49390;51.380;0.098;2023-05-21T08:10:16;20.60;57.40
63260;DHT22;49390;51.380;0.098;2023-05-21T08:12:48;20.50;57.10
63260;DHT22;49390;51.380;0.098;2023-05-21T08:15:16;20.50;57.50
63260;DHT22;49390;51.380;0.098;2023-05-21T08:17:45;20.70;57.20
63260;DHT22;49390;51.380;0.098;2023-05-21T08:20:14;20.80;57.00
63260;DHT22;49390;51.380;0.098;2023-05-21T08:22:44;21.00;56.40
63260;DHT22;49390;51.380;0.098;2023-05-21T08:25:12;21.20;56.70
63260;DHT22;49390;51.380;0.098;2023-05-21T08:27:40;21.20;55.10
63260;DHT22;49390;51.380;0.098;2023-05-21T08:30:09;21.20;54.80
63260;DHT22;49390;51.380;0.098;2023-05-21T08:32:38;21.20;54.30
63260;DHT22;49390;51.380;0.098;2023-05-21T08:35:07;21.20;54.40
63260;DHT22;49390;51.380;0.098;2023-05-21T08:37:47;21.30;54.10
63260;DHT22;49390;51.380;0.098;2023-05-21T08:43:03;21.70;52.40
63260;DHT22;49390;51.380;0.098;2023-05-21T08:45:40;21.80;52.40
63260;DHT22;49390;51.380;0.098;2023-05-21T08:48:10;21.90;52.10
63260;DHT22;49390;51.380;0.098;2023-05-21T08:50:40;21.70;52.10
63260;DHT22;49390;51.380;0.098;2023-05-21T08:53:14;21.60;52.50
63260;DHT22;49390;51.380;0.098;2023-05-21T08:55:56;21.80;52.10
63260;DHT22;49390;51.380;0.098;2023-05-21T08:58:32;22.00;51.50
63260;DHT22;49390;51.380;0.098;2023-05-21T09:01:01;21.90;51.40
63260;DHT22;49390;51.380;0.098;2023-05-21T09:03:31;22.00;51.40
63260;DHT22;49390;51.380;0.098;2023-05-21T09:06:00;22.10;51.30
63260;DHT22;49390;51.380;0.098;2023-05-21T09:08:35;22.10;50.60
63260;DHT22;49390;51.380;0.098;2023-05-21T09:11:16;22.00;50.50
63260;DHT22;49390;51.380;0.098;2023-05-21T09:13:52;21.90;51.00
63260;DHT22;49390;51.380;0.098;2023-05-21T09:16:27;22.00;50.30
63260;DHT22;49390;51.380;0.098;2023-05-21T09:18:55;21.90;49.70
63260;DHT22;49390;51.380;0.098;2023-05-21T09:21:28;21.90;49.40
63260;DHT22;49390;51.380;0.098;2023-05-21T09:24:20;21.90;48.70
63260;DHT22;49390;51.380;0.098;2023-05-21T09:26:50;21.90;48.80
63260;DHT22;49390;51.380;0.098;2023-05-21T09:29:19;21.90;48.80
63260;DHT22;49390;51.380;0.098;2023-05-21T09:42:38;21.20;49.40
63260;DHT22;49390;51.380;0.098;2023-05-21T09:45:28;21.00;49.70
63260;DHT22;49390;51.380;0.098;2023-05-21T09:48:40;20.90;50.20
63260;DHT22;49390;51.380;0.098;2023-05-21T09:51:18;20.70;50.60
63260;DHT22;49390;51.380;0.098;2023-05-21T09:53:57;20.70;50.90
63260;DHT22;49390;51.380;0.098;2023-05-21T09:56:28;20.60;51.40
63260;DHT22;49390;51.380;0.098;2023-05-21T09:59:02;20.40;51.80
63260;DHT22;49390;51.380;0.098;2023-05-21T10:01:35;20.20;52.40
63260;DHT22;49390;51.380;0.098;2023-05-21T10:04:07;19.90;53.00
63260;DHT22;49390;51.380;0.098;2023-05-21T10:06:50;19.70;53.60
63260;DHT22;49390;51.380;0.098;2023-05-21T10:09:26;19.50;54.10
63260;DHT22;49390;51.380;0.098;2023-05-21T10:11:58;19.40;54.40
63260;DHT22;49390;51.380;0.098;2023-05-21T10:14:31;19.20;54.90
63260;DHT22;49390;51.380;0.098;2023-05-21T10:17:02;19.10;55.60
63260;DHT22;49390;51.380;0.098;2023-05-21T10:19:32;19.00;55.70
63260;DHT22;49390;51.380;0.098;2023-05-21T10:22:02;18.90;55.70
63260;DHT22;49390;51.380;0.098;2023-05-21T10:24:32;18.80;56.00
63260;DHT22;49390;51.380;0.098;2023-05-21T10:27:01;18.80;56.50
63260;DHT22;49390;51.380;0.098;2023-05-21T10:29:34;18.80;55.50
63260;DHT22;49390;51.380;0.098;2023-05-21T10:32:20;18.70;55.50
63260;DHT22;49390;51.380;0.098;2023-05-21T10:34:54;18.80;55.60
63260;DHT22;49390;51.380;0.098;2023-05-21T10:37:26;18.80;55.40
63260;DHT22;49390;51.380;0.098;2023-05-21T10:39:59;18.80;55.30
63260;DHT22;49390;51.380;0.098;2023-05-21T10:43:12;18.80;55.40
63260;DHT22;49390;51.380;0.098;2023-05-21T10:46:36;18.70;56.00
63260;DHT22;49390;51.380;0.098;2023-05-21T11:05:53;19.00;56.10
63260;DHT22;49390;51.380;0.098;2023-05-21T11:08:34;19.10;55.10
63260;DHT22;49390;51.380;0.098;2023-05-21T11:14:57;19.30;55.20
63260;DHT22;49390;51.380;0.098;2023-05-21T11:17:55;19.50;54.70
63260;DHT22;49390;51.380;0.098;2023-05-21T11:20:35;19.70;54.10
63260;DHT22;49390;51.380;0.098;2023-05-21T11:23:04;19.70;54.20
63260;DHT22;49390;51.380;0.098;2023-05-21T11:25:32;19.60;54.20
63260;DHT22;49390;51.380;0.098;2023-05-21T11:28:05;19.60;54.10
63260;DHT22;49390;51.380;0.098;2023-05-21T11:30:36;19.60;54.00
63260;DHT22;49390;51.380;0.098;2023-05-21T11:35:58;19.80;54.20
63260;DHT22;49390;51.380;0.098;2023-05-21T11:38:30;19.80;54.30
63260;DHT22;49390;51.380;0.098;2023-05-21T11:41:02;19.90;54.10
63260;DHT22;49390;51.380;0.098;2023-05-21T11:43:31;19.90;55.10
63260;DHT22;49390;51.380;0.098;2023-05-21T11:45:58;19.90;53.70
63260;DHT22;49390;51.380;0.098;2023-05-21T11:48:27;19.80;53.90
63260;DHT22;49390;51.380;0.098;2023-05-21T11:50:59;19.70;54.30
63260;DHT22;49390;51.380;0.098;2023-05-21T11:53:29;19.50;54.40
63260;DHT22;49390;51.380;0.098;2023-05-21T11:55:57;19.50;54.70
63260;DHT22;49390;51.380;0.098;2023-05-21T11:58:30;19.50;54.40
63260;DHT22;49390;51.380;0.098;2023-05-21T12:00:58;19.60;54.40
63260;DHT22;49390;51.380;0.098;2023-05-21T12:03:26;19.70;54.10
63260;DHT22;49390;51.380;0.098;2023-05-21T12:05:54;19.80;53.50
63260;DHT22;49390;51.380;0.098;2023-05-21T12:08:22;19.90;53.40
63260;DHT22;49390;51.380;0.098;2023-05-21T12:10:55;19.90;53.40
63260;DHT22;49390;51.380;0.098;2023-05-21T12:13:25;19.80;52.70
63260;DHT22;49390;51.380;0.098;2023-05-21T12:15:53;19.80;52.90
63260;DHT22;49390;51.380;0.098;2023-05-21T12:18:21;19.80;53.20
63260;DHT22;49390;51.380;0.098;2023-05-21T12:20:50;20.00;53.40
63260;DHT22;49390;51.380;0.098;2023-05-21T12:23:22;20.20;52.70
63260;DHT22;49390;51.380;0.098;2023-05-21T12:25:50;20.40;51.70
63260;DHT22;49390;51.380;0.098;2023-05-21T12:28:21;20.50;51.50
63260;DHT22;49390;51.380;0.098;2023-05-21T12:30:49;20.50;51.30
63260;DHT22;49390;51.380;0.098;2023-05-21T12:33:18;20.50;51.10
63260;DHT22;49390;51.380;0.098;2023-05-21T12:35:46;20.50;50.90
63260;DHT22;49390;51.380;0.098;2023-05-21T12:38:17;20.40;50.30
63260;DHT22;49390;51.380;0.098;2023-05-21T12:40:47;20.30;51.00
63260;DHT22;49390;51.380;0.098;2023-05-21T12:43:15;20.30;50.20
63260;DHT22;49390;51.380;0.098;2023-05-21T12:45:43;20.20;50.20
63260;DHT22;49390;51.380;0.098;2023-05-21T12:48:11;20.10;50.70
63260;DHT22;49390;51.380;0.098;2023-05-21T12:50:39;20.00;51.00
63260;DHT22;49390;51.380;0.098;2023-05-21T12:53:09;19.90;51.40
63260;DHT22;49390;51.380;0.098;2023-05-21T12:55:39;19.80;51.60
63260;DHT22;49390;51.380;0.098;2023-05-21T12:58:12;19.60;52.00
63260;DHT22;49390;51.380;0.098;2023-05-21T13:00:41;19.50;52.50
63260;DHT22;49390;51.380;0.098;2023-05-21T13:03:10;19.40;53.00
63260;DHT22;49390;51.380;0.098;2023-05-21T13:05:39;19.50;53.20
63260;DHT22;49390;51.380;0.098;2023-05-21T13:08:08;19.50;53.10
63260;DHT22;49390;51.380;0.098;2023-05-21T13:10:37;19.60;53.20
63260;DHT22;49390;51.380;0.098;2023-05-21T13:13:05;19.60;53.60
63260;DHT22;49390;51.380;0.098;2023-05-21T13:15:33;19.70;53.70
63260;DHT22;49390;51.380;0.098;2023-05-21T13:18:01;19.80;53.50
63260;DHT22;49390;51.380;0.098;2023-05-21T13:20:30;19.80;53.10
63260;DHT22;49390;51.380;0.098;2023-05-21T13:22:58;19.80;53.20
63260;DHT22;49390;51.380;0.098;2023-05-21T13:25:26;19.70;53.40
63260;DHT22;49390;51.380;0.098;2023-05-21T13:28:01;19.80;53.50
63260;DHT22;49390;51.380;0.098;2023-05-21T13:30:30;19.80;53.60
63260;DHT22;49390;51.380;0.098;2023-05-21T13:33:02;19.80;53.60
63260;DHT22;49390;51.380;0.098;2023-05-21T13:35:30;19.90;53.90
63260;DHT22;49390;51.380;0.098;2023-05-21T13:37:59;19.90;53.60
63260;DHT22;49390;51.380;0.098;2023-05-21T13:40:26;19.80;53.50
63260;DHT22;49390;51.380;0.098;2023-05-21T13:42:55;19.80;53.90
63260;DHT22;49390;51.380;0.098;2023-05-21T13:45:23;19.80;54.20
63260;DHT22;49390;51.380;0.098;2023-05-21T13:47:56;19.80;54.20
63260;DHT22;49390;51.380;0.098;2023-05-21T13:50:24;19.70;54.10
63260;DHT22;49390;51.380;0.098;2023-05-21T13:52:52;19.70;54.40
63260;DHT22;49390;51.380;0.098;2023-05-21T13:57:33;19.70;54.00
63260;DHT22;49390;51.380;0.098;2023-05-21T14:00:03;19.70;54.20
63260;DHT22;49390;51.380;0.098;2023-05-21T14:02:34;19.70;54.40
63260;DHT22;49390;51.380;0.098;2023-05-21T14:05:02;19.70;54.30
63260;DHT22;49390;51.380;0.098;2023-05-21T14:07:30;19.70;54.30
63260;DHT22;49390;51.380;0.098;2023-05-21T14:09:58;19.70;55.10
63260;DHT22;49390;51.380;0.098;2023-05-21T14:12:26;19.70;54.60
63260;DHT22;49390;51.380;0.098;2023-05-21T14:14:55;19.70;54.40
63260;DHT22;49390;51.380;0.098;2023-05-21T14:17:23;19.60;54.50
63260;DHT22;49390;51.380;0.098;2023-05-21T14:19:51;19.60;54.70
63260;DHT22;49390;51.380;0.098;2023-05-21T14:22:19;19.40;55.00
63260;DHT22;49390;51.380;0.098;2023-05-21T14:24:47;19.40;55.40
63260;DHT22;49390;51.380;0.098;2023-05-21T14:27:15;19.40;55.60
63260;DHT22;49390;51.380;0.098;2023-05-21T14:29:43;19.40;55.70
63260;DHT22;49390;51.380;0.098;2023-05-21T14:32:11;19.40;55.80
63260;DHT22;49390;51.380;0.098;2023-05-21T14:34:39;19.30;55.90
63260;DHT22;49390;51.380;0.098;2023-05-21T14:37:10;19.40;56.10
63260;DHT22;49390;51.380;0.098;2023-05-21T14:39:38;19.40;56.10
63260;DHT22;49390;51.380;0.098;2023-05-21T14:42:06;19.50;56.20
63260;DHT22;49390;51.380;0.098;2023-05-21T14:44:34;19.60;56.20
63260;DHT22;49390;51.380;0.098;2023-05-21T14:47:02;19.60;56.10
63260;DHT22;49390;51.380;0.098;2023-05-21T14:49:30;19.70;56.20
63260;DHT22;49390;51.380;0.098;2023-05-21T14:51:58;19.70;55.80
63260;DHT22;49390;51.380;0.098;2023-05-21T14:54:26;19.50;56.70
63260;DHT22;49390;51.380;0.098;2023-05-21T14:56:54;19.40;56.40
63260;DHT22;49390;51.380;0.098;2023-05-21T14:59:22;19.40;56.60
63260;DHT22;49390;51.380;0.098;2023-05-21T15:01:50;19.40;56.60
63260;DHT22;49390;51.380;0.098;2023-05-21T15:04:18;19.40;56.70
63260;DHT22;49390;51.380;0.098;2023-05-21T15:06:46;19.30;56.80
63260;DHT22;49390;51.380;0.098;2023-05-21T15:09:15;19.30;57.10
63260;DHT22;49390;51.380;0.098;2023-05-21T15:11:42;19.30;57.10
63260;DHT22;49390;51.380;0.098;2023-05-21T15:14:12;19.40;57.20
63260;DHT22;49390;51.380;0.098;2023-05-21T15:16:40;19.50;57.00
63260;DHT22;49390;51.380;0.098;2023-05-21T15:19:08;19.60;56.80
63260;DHT22;49390;51.380;0.098;2023-05-21T15:21:38;19.60;56.80
63260;DHT22;49390;51.380;0.098;2023-05-21T15:24:06;19.50;56.80
63260;DHT22;49390;51.380;0.098;2023-05-21T15:26:34;19.60;57.00
63260;DHT22;49390;51.380;0.098;2023-05-21T15:29:02;19.60;56.80
63260;DHT22;49390;51.380;0.098;2023-05-21T15:31:31;19.60;57.00
63260;DHT22;49390;51.380;0.098;2023-05-21T15:33:59;19.60;56.90
63260;DHT22;49390;51.380;0.098;2023-05-21T15:36:27;19.60;57.10
63260;DHT22;49390;51.380;0.098;2023-05-21T15:38:55;19.70;57.50
63260;DHT22;49390;51.380;0.098;2023-05-21T15:41:23;19.80;57.50
63260;DHT22;49390;51.380;0.098;2023-05-21T15:43:51;19.80;57.40
63260;DHT22;49390;51.380;0.098;2023-05-21T15:46:19;19.90;57.30
63260;DHT22;49390;51.380;0.098;2023-05-21T15:48:47;19.90;57.30
63260;DHT22;49390;51.380;0.098;2023-05-21T15:51:15;20.00;57.30
63260;DHT22;49390;51.380;0.098;2023-05-21T15:53:43;20.00;57.30
63260;DHT22;49390;51.380;0.098;2023-05-21T15:56:11;20.10;57.10
63260;DHT22;49390;51.380;0.098;2023-05-21T15:58:39;20.00;56.80
63260;DHT22;49390;51.380;0.098;2023-05-21T16:01:07;20.00;57.10
63260;DHT22;49390;51.380;0.098;2023-05-21T16:03:36;20.00;57.30
63260;DHT22;49390;51.380;0.098;2023-05-21T16:06:04;20.00;57.20
63260;DHT22;49390;51.380;0.098;2023-05-21T16:08:34;19.90;57.40
63260;DHT22;49390;51.380;0.098;2023-05-21T16:11:01;19.80;57.50
63260;DHT22;49390;51.380;0.098;2023-05-21T16:13:29;19.60;57.70
63260;DHT22;49390;51.380;0.098;2023-05-21T16:15:57;19.60;57.90
63260;DHT22;49390;51.380;0.098;2023-05-21T16:18:25;19.50;58.10
63260;DHT22;49390;51.380;0.098;2023-05-21T16:20:54;19.50;58.40
63260;DHT22;49390;51.380;0.098;2023-05-21T16:23:23;19.40;58.50
63260;DHT22;49390;51.380;0.098;2023-05-21T16:25:51;19.30;58.70
63260;DHT22;49390;51.380;0.098;2023-05-21T16:28:19;19.30;59.00